createdAt,value
2018-05-11T00:00:17.265Z,9.61
2018-05-11T00:01:17.230Z,9.63
2018-05-11T00:02:17.203Z,9.61
2018-05-11T00:03:17.253Z,9.65
2018-05-11T00:04:17.321Z,9.66
2018-05-11T00:05:17.270Z,9.61
2018-05-11T00:06:17.247Z,9.65
2018-05-11T00:07:17.231Z,9.67
2018-05-11T00:08:17.221Z,9.68
2018-05-11T00:09:17.184Z,9.67
2018-05-11T00:10:17.258Z,9.62
2018-05-11T00:11:17.229Z,9.69
2018-05-11T00:12:17.229Z,9.68
2018-05-11T00:13:17.244Z,9.7
2018-05-11T00:14:17.188Z,9.71
2018-05-11T00:15:17.194Z,9.65
2018-05-11T00:16:17.200Z,9.64
2018-05-11T00:17:17.202Z,9.72
2018-05-11T00:18:17.212Z,9.66
2018-05-11T00:19:17.226Z,9.65
2018-05-11T00:20:17.228Z,9.65
2018-05-11T00:21:17.231Z,9.66
2018-05-11T00:22:17.207Z,9.66
2018-05-11T00:23:17.255Z,9.64
2018-05-11T00:24:17.275Z,9.59
2018-05-11T00:25:17.223Z,9.57
2018-05-11T00:26:17.205Z,9.58
2018-05-11T00:27:17.741Z,9.54
2018-05-11T00:28:17.259Z,9.55
2018-05-11T00:29:17.212Z,9.66
2018-05-11T00:30:17.234Z,9.63
2018-05-11T00:31:17.234Z,9.61
2018-05-11T00:32:17.219Z,9.58
2018-05-11T00:33:17.202Z,9.59
2018-05-11T00:34:17.262Z,9.57
2018-05-11T00:35:17.237Z,9.56
2018-05-11T00:36:17.337Z,9.57
2018-05-11T00:37:17.663Z,9.57
2018-05-11T00:38:17.287Z,9.62
2018-05-11T00:39:17.218Z,9.62
2018-05-11T00:40:17.251Z,9.53
2018-05-11T00:41:17.262Z,9.54
2018-05-11T00:42:17.256Z,9.58
2018-05-11T00:43:17.254Z,9.57
2018-05-11T00:44:17.260Z,9.56
2018-05-11T00:45:17.266Z,9.55
2018-05-11T00:46:17.347Z,9.54
2018-05-11T00:47:17.571Z,9.54
2018-05-11T00:48:17.256Z,9.55
2018-05-11T00:49:17.243Z,9.56
2018-05-11T00:50:17.267Z,9.54
2018-05-11T00:51:17.225Z,9.53
2018-05-11T00:52:17.365Z,9.58
2018-05-11T00:53:17.258Z,9.57
2018-05-11T00:54:17.246Z,9.53
2018-05-11T00:55:17.309Z,9.53
2018-05-11T00:56:17.217Z,9.51
2018-05-11T00:57:17.249Z,9.48
2018-05-11T00:58:17.270Z,9.46
2018-05-11T00:59:17.245Z,9.49
2018-05-11T01:00:17.297Z,9.54
2018-05-11T01:01:17.242Z,9.56
2018-05-11T01:02:17.310Z,9.53
2018-05-11T01:03:17.307Z,9.53
2018-05-11T01:04:17.262Z,9.51
2018-05-11T01:05:17.279Z,9.52
2018-05-11T01:06:17.376Z,9.53
2018-05-11T01:07:17.447Z,9.57
2018-05-11T01:08:17.246Z,9.56
2018-05-11T01:09:17.335Z,9.61
2018-05-11T01:10:17.257Z,9.6
2018-05-11T01:11:17.289Z,9.57
2018-05-11T01:12:17.653Z,9.57
2018-05-11T01:13:17.236Z,9.58
2018-05-11T01:14:17.294Z,9.55
2018-05-11T01:15:17.294Z,9.53
2018-05-11T01:16:17.544Z,9.5
2018-05-11T01:17:17.259Z,9.47
2018-05-11T01:18:17.273Z,9.55
2018-05-11T01:19:17.262Z,9.54
2018-05-11T01:20:17.285Z,9.57
2018-05-11T01:21:17.288Z,9.57
2018-05-11T01:22:17.283Z,9.52
2018-05-11T01:23:17.289Z,9.52
2018-05-11T01:24:17.288Z,9.49
2018-05-11T01:25:17.252Z,9.49
2018-05-11T01:26:17.277Z,9.5
2018-05-11T01:27:17.678Z,9.48
2018-05-11T01:28:17.257Z,9.56
2018-05-11T01:29:17.256Z,9.55
2018-05-11T01:30:17.264Z,9.56
2018-05-11T01:31:17.249Z,9.59
2018-05-11T01:32:17.314Z,9.56
2018-05-11T01:33:17.268Z,9.53
2018-05-11T01:34:17.279Z,9.57
2018-05-11T01:35:17.286Z,9.51
2018-05-11T01:36:17.287Z,9.5
2018-05-11T01:37:17.282Z,9.53
2018-05-11T01:38:17.263Z,9.49
2018-05-11T01:39:17.261Z,9.52
2018-05-11T01:40:17.371Z,9.49
2018-05-11T01:41:17.262Z,9.51
2018-05-11T01:42:17.786Z,9.51
2018-05-11T01:43:17.325Z,9.5
2018-05-11T01:44:17.275Z,9.5
2018-05-11T01:45:17.262Z,9.45
2018-05-11T01:46:17.265Z,9.45
2018-05-11T01:47:17.280Z,9.46
2018-05-11T01:48:17.409Z,9.51
2018-05-11T01:49:17.315Z,9.47
2018-05-11T01:50:17.289Z,9.45
2018-05-11T01:51:17.280Z,9.47
2018-05-11T01:52:17.318Z,9.45
2018-05-11T01:53:17.257Z,9.44
2018-05-11T01:54:17.262Z,9.44
2018-05-11T01:55:17.298Z,9.44
2018-05-11T01:56:17.278Z,9.41
2018-05-11T01:57:17.280Z,9.42
2018-05-11T01:58:17.305Z,9.49
2018-05-11T01:59:17.311Z,9.51
2018-05-11T02:00:17.283Z,9.48
2018-05-11T02:01:17.290Z,9.45
2018-05-11T02:02:17.271Z,9.42
2018-05-11T02:03:17.378Z,9.43
2018-05-11T02:04:17.346Z,9.47
2018-05-11T02:05:17.261Z,9.43
2018-05-11T02:06:17.340Z,9.45
2018-05-11T02:07:17.318Z,9.43
2018-05-11T02:08:17.402Z,9.44
2018-05-11T02:09:17.299Z,9.4
2018-05-11T02:10:17.329Z,9.46
2018-05-11T02:11:17.347Z,9.42
2018-05-11T02:12:17.284Z,9.44
2018-05-11T02:13:17.281Z,9.4
2018-05-11T02:14:17.293Z,9.38
2018-05-11T02:15:17.279Z,9.39
2018-05-11T02:16:17.279Z,9.37
2018-05-11T02:17:17.279Z,9.41
2018-05-11T02:18:17.301Z,9.41
2018-05-11T02:19:17.307Z,9.37
2018-05-11T02:20:17.277Z,9.35
2018-05-11T02:21:17.286Z,9.34
2018-05-11T02:22:17.286Z,9.34
2018-05-11T02:23:17.286Z,9.37
2018-05-11T02:24:17.289Z,9.34
2018-05-11T02:25:17.273Z,9.34
2018-05-11T02:26:17.340Z,9.34
2018-05-11T02:27:17.272Z,9.33
2018-05-11T02:28:17.335Z,9.34
2018-05-11T02:29:17.300Z,9.33
2018-05-11T02:30:17.421Z,9.36
2018-05-11T02:31:17.303Z,9.33
2018-05-11T02:32:17.300Z,9.33
2018-05-11T02:33:17.354Z,9.33
2018-05-11T02:34:17.345Z,9.39
2018-05-11T02:35:17.314Z,9.35
2018-05-11T02:36:17.320Z,9.4
2018-05-11T02:37:17.305Z,9.38
2018-05-11T02:38:17.284Z,9.39
2018-05-11T02:39:17.320Z,9.38
2018-05-11T02:40:17.345Z,9.33
2018-05-11T02:41:17.423Z,9.31
2018-05-11T02:42:17.333Z,9.36
2018-05-11T02:43:17.326Z,9.36
2018-05-11T02:44:17.308Z,9.34
2018-05-11T02:45:17.304Z,9.3
2018-05-11T02:46:17.338Z,9.28
2018-05-11T02:47:17.284Z,9.34
2018-05-11T02:48:17.328Z,9.33
2018-05-11T02:49:17.298Z,9.28
2018-05-11T02:50:17.391Z,9.27
2018-05-11T02:51:17.399Z,9.27
2018-05-11T02:52:17.333Z,9.26
2018-05-11T02:53:17.419Z,9.29
2018-05-11T02:54:17.281Z,9.25
2018-05-11T02:55:17.295Z,9.29
2018-05-11T02:56:17.313Z,9.28
2018-05-11T02:57:17.339Z,9.33
2018-05-11T02:58:17.334Z,9.29
2018-05-11T02:59:17.395Z,9.31
2018-05-11T03:00:17.330Z,9.29
2018-05-11T03:01:17.416Z,9.28
2018-05-11T03:02:17.284Z,9.28
2018-05-11T03:03:17.308Z,9.29
2018-05-11T03:04:17.365Z,9.27
2018-05-11T03:05:17.300Z,9.27
2018-05-11T03:06:17.353Z,9.24
2018-05-11T03:07:17.388Z,9.24
2018-05-11T03:08:17.415Z,9.21
2018-05-11T03:09:17.319Z,9.18
2018-05-11T03:10:17.359Z,9.21
2018-05-11T03:11:17.358Z,9.2
2018-05-11T03:12:17.371Z,9.25
2018-05-11T03:13:17.423Z,9.23
2018-05-11T03:14:17.329Z,9.22
2018-05-11T03:15:17.319Z,9.24
2018-05-11T03:16:17.310Z,9.23
2018-05-11T03:17:17.303Z,9.22
2018-05-11T03:18:17.283Z,9.18
2018-05-11T03:19:17.307Z,9.22
2018-05-11T03:20:17.333Z,9.17
2018-05-11T03:21:17.398Z,9.2
2018-05-11T03:22:17.312Z,9.16
2018-05-11T03:23:17.313Z,9.18
2018-05-11T03:24:17.311Z,9.18
2018-05-11T03:25:17.331Z,9.15
2018-05-11T03:26:17.482Z,9.16
2018-05-11T03:27:17.514Z,9.18
2018-05-11T03:28:17.325Z,9.2
2018-05-11T03:29:17.325Z,9.15
2018-05-11T03:30:17.336Z,9.17
2018-05-11T03:31:17.338Z,9.15
2018-05-11T03:32:17.333Z,9.13
2018-05-11T03:33:17.432Z,9.14
2018-05-11T03:34:17.334Z,9.11
2018-05-11T03:35:17.302Z,9.09
2018-05-11T03:36:17.329Z,9.07
2018-05-11T03:37:17.303Z,9.06
2018-05-11T03:38:17.311Z,9.06
2018-05-11T03:39:17.339Z,9.06
2018-05-11T03:40:17.312Z,9.05
2018-05-11T03:41:17.338Z,9.09
2018-05-11T03:42:17.380Z,9.06
2018-05-11T03:43:17.342Z,9.07
2018-05-11T03:44:17.336Z,9.04
2018-05-11T03:45:17.371Z,9.04
2018-05-11T03:46:17.346Z,9.03
2018-05-11T03:47:17.322Z,9.09
2018-05-11T03:48:17.341Z,9.08
2018-05-11T03:49:17.348Z,9.09
2018-05-11T03:50:17.303Z,9.09
2018-05-11T03:51:17.338Z,9.11
2018-05-11T03:52:17.344Z,9.13
2018-05-11T03:53:17.324Z,9.06
2018-05-11T03:54:17.322Z,9.04
2018-05-11T03:55:17.368Z,9.03
2018-05-11T03:56:17.316Z,9.05
2018-05-11T03:57:17.322Z,9.02
2018-05-11T03:58:17.326Z,9.03
2018-05-11T03:59:17.337Z,9
2018-05-11T04:00:17.310Z,9.01
2018-05-11T04:01:17.353Z,9.02
2018-05-11T04:02:17.348Z,9.01
2018-05-11T04:03:17.379Z,9.01
2018-05-11T04:04:17.334Z,9.03
2018-05-11T04:05:17.330Z,9.04
2018-05-11T04:06:17.338Z,9
2018-05-11T04:07:17.348Z,9.03
2018-05-11T04:08:17.326Z,9.03
2018-05-11T04:09:17.394Z,9.01
2018-05-11T04:10:17.376Z,9.06
2018-05-11T04:11:17.325Z,9.07
2018-05-11T04:12:17.338Z,9.01
2018-05-11T04:13:18.197Z,9
2018-05-11T04:14:17.395Z,9.01
2018-05-11T04:15:17.360Z,9.01
2018-05-11T04:16:17.375Z,8.96
2018-05-11T04:17:17.333Z,9.01
2018-05-11T04:18:17.436Z,8.99
2018-05-11T04:19:17.625Z,8.95
2018-05-11T04:20:17.370Z,8.98
2018-05-11T04:21:17.290Z,8.97
2018-05-11T04:22:17.324Z,8.93
2018-05-11T04:23:17.390Z,8.92
2018-05-11T04:24:17.408Z,8.95
2018-05-11T04:25:17.388Z,8.9
2018-05-11T04:26:17.380Z,8.89
2018-05-11T04:27:17.359Z,8.89
2018-05-11T04:28:17.335Z,8.88
2018-05-11T04:29:17.328Z,8.92
2018-05-11T04:30:17.902Z,8.88
2018-05-11T04:31:17.336Z,8.93
2018-05-11T04:32:17.378Z,8.92
2018-05-11T04:33:17.321Z,8.87
2018-05-11T04:34:17.380Z,8.87
2018-05-11T04:35:17.419Z,8.87
2018-05-11T04:36:17.324Z,8.92
2018-05-11T04:37:17.952Z,8.89
2018-05-11T04:38:17.323Z,8.86
2018-05-11T04:39:17.331Z,8.86
2018-05-11T04:40:17.384Z,8.89
2018-05-11T04:41:17.355Z,8.88
2018-05-11T04:42:17.377Z,8.93
2018-05-11T04:43:17.366Z,8.93
2018-05-11T04:44:17.357Z,8.9
2018-05-11T04:45:17.774Z,8.98
2018-05-11T04:46:17.336Z,8.98
2018-05-11T04:47:17.353Z,8.99
2018-05-11T04:48:17.369Z,8.96
2018-05-11T04:49:17.348Z,8.97
2018-05-11T04:50:17.749Z,8.97
2018-05-11T04:51:17.371Z,9
2018-05-11T04:52:17.423Z,9
2018-05-11T04:53:17.363Z,8.97
2018-05-11T04:54:17.471Z,8.94
2018-05-11T04:55:17.466Z,8.98
2018-05-11T04:56:17.331Z,9
2018-05-11T04:57:17.358Z,9.01
2018-05-11T04:58:17.360Z,8.99
2018-05-11T04:59:17.341Z,8.97
2018-05-11T05:00:17.369Z,8.98
2018-05-11T05:01:17.414Z,9.03
2018-05-11T05:02:17.612Z,8.97
2018-05-11T05:03:17.308Z,8.99
2018-05-11T05:04:17.358Z,8.96
2018-05-11T05:05:17.369Z,8.99
2018-05-11T05:06:17.348Z,8.99
2018-05-11T05:07:17.397Z,8.99
2018-05-11T05:08:17.362Z,9.01
2018-05-11T05:09:17.319Z,8.96
2018-05-11T05:10:17.350Z,8.96
2018-05-11T05:11:17.365Z,8.97
2018-05-11T05:12:17.892Z,9.01
2018-05-11T05:13:17.336Z,9.03
2018-05-11T05:14:17.508Z,8.97
2018-05-11T05:15:17.398Z,9.03
2018-05-11T05:16:17.390Z,9.01
2018-05-11T05:17:17.357Z,9.03
2018-05-11T05:18:17.402Z,9.01
2018-05-11T05:19:17.694Z,9.04
2018-05-11T05:20:17.452Z,9.1
2018-05-11T05:21:17.372Z,9.1
2018-05-11T05:22:17.385Z,9.14
2018-05-11T05:23:17.345Z,9.11
2018-05-11T05:24:17.413Z,9.11
2018-05-11T05:25:17.367Z,9.11
2018-05-11T05:26:17.346Z,9.1
2018-05-11T05:27:17.337Z,9.09
2018-05-11T05:28:17.369Z,9.13
2018-05-11T05:29:17.469Z,9.16
2018-05-11T05:30:17.385Z,9.17
2018-05-11T05:31:17.346Z,9.12
2018-05-11T05:32:17.377Z,9.12
2018-05-11T05:33:17.455Z,9.15
2018-05-11T05:34:17.338Z,9.15
2018-05-11T05:35:17.362Z,9.12
2018-05-11T05:36:17.393Z,9.13
2018-05-11T05:37:17.419Z,9.18
2018-05-11T05:38:17.352Z,9.21
2018-05-11T05:39:18.459Z,9.19
2018-05-11T05:40:17.368Z,9.25
2018-05-11T05:41:17.362Z,9.24
2018-05-11T05:42:17.695Z,9.26
2018-05-11T05:43:17.484Z,9.26
2018-05-11T05:44:17.423Z,9.25
2018-05-11T05:45:17.393Z,9.3
2018-05-11T05:46:17.402Z,9.28
2018-05-11T05:47:17.420Z,9.29
2018-05-11T05:48:17.407Z,9.33
2018-05-11T05:49:17.378Z,9.28
2018-05-11T05:50:17.384Z,9.3
2018-05-11T05:51:17.490Z,9.35
2018-05-11T05:52:17.386Z,9.36
2018-05-11T05:53:17.412Z,9.31
2018-05-11T05:54:17.429Z,9.33
2018-05-11T05:55:17.459Z,9.31
2018-05-11T05:56:17.375Z,9.31
2018-05-11T05:57:17.372Z,9.31
2018-05-11T05:58:17.376Z,9.4
2018-05-11T05:59:17.407Z,9.34
2018-05-11T06:00:17.441Z,9.4
2018-05-11T06:01:17.407Z,9.39
2018-05-11T06:02:17.405Z,9.4
2018-05-11T06:03:17.385Z,9.37
2018-05-11T06:04:17.457Z,9.35
2018-05-11T06:05:17.360Z,9.39
2018-05-11T06:06:17.456Z,9.38
2018-05-11T06:07:17.747Z,9.39
2018-05-11T06:08:17.914Z,9.42
2018-05-11T06:09:17.351Z,9.41
2018-05-11T06:10:17.377Z,9.39
2018-05-11T06:11:17.608Z,9.48
2018-05-11T06:12:17.409Z,9.49
2018-05-11T06:13:17.368Z,9.45
2018-05-11T06:14:17.404Z,9.45
2018-05-11T06:15:17.370Z,9.47
2018-05-11T06:16:17.378Z,9.44
2018-05-11T06:17:17.536Z,9.45
2018-05-11T06:18:17.411Z,9.48
2018-05-11T06:19:17.410Z,9.51
2018-05-11T06:20:17.380Z,9.58
2018-05-11T06:21:17.392Z,9.6
2018-05-11T06:22:17.405Z,9.57
2018-05-11T06:23:17.422Z,9.58
2018-05-11T06:24:17.441Z,9.55
2018-05-11T06:25:17.423Z,9.57
2018-05-11T06:26:17.378Z,9.62
2018-05-11T06:27:17.407Z,9.52
2018-05-11T06:28:18.268Z,9.53
2018-05-11T06:29:17.534Z,9.54
2018-05-11T06:30:17.383Z,9.57
2018-05-11T06:31:17.401Z,9.56
2018-05-11T06:32:17.477Z,9.56
2018-05-11T06:33:17.397Z,9.57
2018-05-11T06:34:17.394Z,9.55
2018-05-11T06:35:17.420Z,9.56
2018-05-11T06:36:17.397Z,9.48
2018-05-11T06:37:17.434Z,9.49
2018-05-11T06:38:17.394Z,9.47
2018-05-11T06:39:17.451Z,9.5
2018-05-11T06:40:17.393Z,9.35
2018-05-11T06:41:17.389Z,9.45
2018-05-11T06:42:17.419Z,9.46
2018-05-11T06:43:17.424Z,9.39
2018-05-11T06:44:17.389Z,9.35
2018-05-11T06:45:17.395Z,9.38
2018-05-11T06:46:17.409Z,9.38
2018-05-11T06:47:17.822Z,9.39
2018-05-11T06:48:17.394Z,9.46
2018-05-11T06:49:17.403Z,9.56
2018-05-11T06:50:17.569Z,9.62
2018-05-11T06:51:17.401Z,9.64
2018-05-11T06:52:17.459Z,9.63
2018-05-11T06:53:17.424Z,9.68
2018-05-11T06:54:17.430Z,9.63
2018-05-11T06:55:17.530Z,9.54
2018-05-11T06:56:17.393Z,9.63
2018-05-11T06:57:17.410Z,9.63
2018-05-11T06:58:17.367Z,9.6
2018-05-11T06:59:17.434Z,9.59
2018-05-11T07:00:17.559Z,9.66
2018-05-11T07:01:18.284Z,9.69
2018-05-11T07:02:17.411Z,9.7
2018-05-11T07:03:17.553Z,9.71
2018-05-11T07:04:17.460Z,9.75
2018-05-11T07:05:17.402Z,9.77
2018-05-11T07:06:17.444Z,9.83
2018-05-11T07:07:17.677Z,9.86
2018-05-11T07:08:17.382Z,9.87
2018-05-11T07:09:17.413Z,9.85
2018-05-11T07:10:17.403Z,9.85
2018-05-11T07:11:17.376Z,9.69
2018-05-11T07:12:17.418Z,9.77
2018-05-11T07:13:17.425Z,9.87
2018-05-11T07:14:17.402Z,9.83
2018-05-11T07:15:17.569Z,9.84
2018-05-11T07:16:17.418Z,9.85
2018-05-11T07:17:17.425Z,9.92
2018-05-11T07:18:17.428Z,9.87
2018-05-11T07:19:19.123Z,9.87
2018-05-11T07:20:17.391Z,9.89
2018-05-11T07:21:17.376Z,9.94
2018-05-11T07:22:17.452Z,9.96
2018-05-11T07:23:17.425Z,9.88
2018-05-11T07:24:17.773Z,9.86
2018-05-11T07:25:17.414Z,9.98
2018-05-11T07:26:17.697Z,10
2018-05-11T07:27:17.856Z,9.98
2018-05-11T07:28:17.526Z,9.97
2018-05-11T07:29:17.540Z,9.97
2018-05-11T07:30:17.412Z,9.97
2018-05-11T07:31:17.402Z,10
2018-05-11T07:32:17.419Z,9.91
2018-05-11T07:33:17.432Z,9.85
2018-05-11T07:34:17.412Z,9.82
2018-05-11T07:35:17.414Z,9.83
2018-05-11T07:36:17.434Z,9.88
2018-05-11T07:37:17.456Z,10
2018-05-11T07:38:17.454Z,10.02
2018-05-11T07:39:17.512Z,10.06
2018-05-11T07:40:17.434Z,10.08
2018-05-11T07:41:17.440Z,10.1
2018-05-11T07:42:17.436Z,10.07
2018-05-11T07:43:18.404Z,10.06
2018-05-11T07:44:17.453Z,9.97
2018-05-11T07:45:17.435Z,9.96
2018-05-11T07:46:17.436Z,10.07
2018-05-11T07:47:17.484Z,10.11
2018-05-11T07:48:17.495Z,10.2
2018-05-11T07:49:17.511Z,10.34
2018-05-11T07:50:17.433Z,10.23
2018-05-11T07:51:17.488Z,10.3
2018-05-11T07:52:17.453Z,10.19
2018-05-11T07:53:17.553Z,10.24
2018-05-11T07:54:17.490Z,10.27
2018-05-11T07:55:17.472Z,10.25
2018-05-11T07:56:17.476Z,10.22
2018-05-11T07:57:17.593Z,10.33
2018-05-11T07:58:17.457Z,10.13
2018-05-11T07:59:17.473Z,10.05
2018-05-11T08:00:17.485Z,9.94
2018-05-11T08:01:17.481Z,10.11
2018-05-11T08:02:17.519Z,10.09
2018-05-11T08:03:17.436Z,10.2
2018-05-11T08:04:17.514Z,10.19
2018-05-11T08:05:17.583Z,10.25
2018-05-11T08:06:17.453Z,10.36
2018-05-11T08:07:17.820Z,10.34
2018-05-11T08:08:17.506Z,10.3
2018-05-11T08:09:17.562Z,10.32
2018-05-11T08:10:17.435Z,10.23
2018-05-11T08:11:17.554Z,10.28
2018-05-11T08:12:17.490Z,10.03
2018-05-11T08:13:17.467Z,10.14
2018-05-11T08:14:18.366Z,10.24
2018-05-11T08:15:17.575Z,10.28
2018-05-11T08:16:17.476Z,10.27
2018-05-11T08:17:17.453Z,10.21
2018-05-11T08:18:17.463Z,10.36
2018-05-11T08:19:17.476Z,10.29
2018-05-11T08:20:17.465Z,10.28
2018-05-11T08:21:17.979Z,10.19
2018-05-11T08:22:17.453Z,10.27
2018-05-11T08:23:17.483Z,10.22
2018-05-11T08:24:17.488Z,10.31
2018-05-11T08:25:17.478Z,10.37
2018-05-11T08:26:17.497Z,10.39
2018-05-11T08:27:17.448Z,10.3
2018-05-11T08:28:17.580Z,10.1
2018-05-11T08:29:17.498Z,10.1
2018-05-11T08:30:17.482Z,10.13
2018-05-11T08:31:17.483Z,10.24
2018-05-11T08:32:17.467Z,10.21
2018-05-11T08:33:17.505Z,10.22
2018-05-11T08:34:17.458Z,10.32
2018-05-11T08:35:17.512Z,10.17
2018-05-11T08:36:17.497Z,10.19
2018-05-11T08:37:17.473Z,10.13
2018-05-11T08:38:17.751Z,10.19
2018-05-11T08:39:17.518Z,10.23
2018-05-11T08:40:17.498Z,10.22
2018-05-11T08:41:17.482Z,10.28
2018-05-11T08:42:17.598Z,10.15
2018-05-11T08:43:17.502Z,10.13
2018-05-11T08:44:17.506Z,10.22
2018-05-11T08:45:17.485Z,10.29
2018-05-11T08:46:18.014Z,10.37
2018-05-11T08:47:17.459Z,10.36
2018-05-11T08:48:18.213Z,10.13
2018-05-11T08:49:18.099Z,10.12
2018-05-11T08:50:17.482Z,10.04
2018-05-11T08:51:17.531Z,9.79
2018-05-11T08:52:17.455Z,9.97
2018-05-11T08:53:17.471Z,9.84
2018-05-11T08:54:17.648Z,9.81
2018-05-11T08:55:17.494Z,10
2018-05-11T08:56:17.493Z,9.97
2018-05-11T08:57:18.311Z,9.84
2018-05-11T08:58:17.504Z,9.63
2018-05-11T08:59:17.478Z,9.45
2018-05-11T09:00:17.544Z,9.51
2018-05-11T09:01:17.486Z,9.59
2018-05-11T09:02:17.510Z,9.49
2018-05-11T09:03:17.480Z,9.71
2018-05-11T09:04:17.481Z,9.92
2018-05-11T09:05:17.529Z,9.9
2018-05-11T09:06:17.469Z,9.94
2018-05-11T09:07:17.524Z,9.91
2018-05-11T09:08:17.926Z,9.69
2018-05-11T09:09:17.518Z,9.83
2018-05-11T09:10:17.459Z,9.66
2018-05-11T09:11:17.469Z,9.73
2018-05-11T09:12:17.476Z,9.69
2018-05-11T09:13:17.486Z,9.74
2018-05-11T09:14:17.483Z,9.82
2018-05-11T09:15:17.504Z,9.84
2018-05-11T09:16:17.474Z,9.69
2018-05-11T09:17:17.510Z,9.86
2018-05-11T09:18:17.551Z,9.82
2018-05-11T09:19:17.481Z,10.02
2018-05-11T09:20:17.462Z,9.87
2018-05-11T09:21:17.533Z,9.99
2018-05-11T09:22:17.494Z,9.83
2018-05-11T09:23:17.522Z,9.95
2018-05-11T09:24:17.529Z,9.85
2018-05-11T09:25:17.535Z,9.96
2018-05-11T09:26:17.528Z,9.95
2018-05-11T09:27:17.525Z,9.89
2018-05-11T09:28:17.569Z,9.67
2018-05-11T09:29:17.563Z,9.71
2018-05-11T09:30:17.508Z,9.83
2018-05-11T09:31:18.556Z,9.94
2018-05-11T09:32:17.483Z,9.89
2018-05-11T09:33:17.493Z,10
2018-05-11T09:34:17.496Z,9.85
2018-05-11T09:35:17.508Z,9.84
2018-05-11T09:36:17.521Z,9.46
2018-05-11T09:37:17.512Z,9.53
2018-05-11T09:38:17.501Z,9.57
2018-05-11T09:39:17.521Z,9.66
2018-05-11T09:40:17.509Z,9.52
2018-05-11T09:41:17.514Z,9.45
2018-05-11T09:42:17.520Z,9.68
2018-05-11T09:43:17.498Z,9.69
2018-05-11T09:44:17.498Z,9.75
2018-05-11T09:45:17.878Z,9.88
2018-05-11T09:46:17.579Z,9.91
2018-05-11T09:47:17.584Z,9.74
2018-05-11T09:48:17.493Z,9.52
2018-05-11T09:49:17.514Z,9.15
2018-05-11T09:50:17.492Z,9.31
2018-05-11T09:51:17.513Z,9.66
2018-05-11T09:52:17.823Z,9.54
2018-05-11T09:53:17.524Z,9.85
2018-05-11T09:54:17.541Z,9.89
2018-05-11T09:55:17.497Z,9.74
2018-05-11T09:56:17.528Z,9.77
2018-05-11T09:57:17.688Z,9.54
2018-05-11T09:58:17.590Z,9.5
2018-05-11T09:59:17.537Z,9.74
2018-05-11T10:00:17.498Z,9.72
2018-05-11T10:01:17.507Z,9.79
2018-05-11T10:02:17.558Z,9.44
2018-05-11T10:03:17.494Z,9.37
2018-05-11T10:04:17.509Z,9.47
2018-05-11T10:05:17.540Z,9.76
2018-05-11T10:06:17.510Z,9.57
2018-05-11T10:07:17.506Z,9.65
2018-05-11T10:08:17.533Z,9.69
2018-05-11T10:09:17.503Z,9.38
2018-05-11T10:10:17.510Z,9.49
2018-05-11T10:11:17.510Z,9.69
2018-05-11T10:12:17.611Z,9.75
2018-05-11T10:13:17.514Z,9.66
2018-05-11T10:14:17.489Z,9.66
2018-05-11T10:15:17.498Z,9.33
2018-05-11T10:16:17.488Z,9.7
2018-05-11T10:17:17.520Z,9.77
2018-05-11T10:18:17.496Z,9.87
2018-05-11T10:19:17.537Z,9.58
2018-05-11T10:20:17.640Z,9.6
2018-05-11T10:21:17.486Z,9.69
2018-05-11T10:22:17.483Z,9.68
2018-05-11T10:23:17.490Z,9.57
2018-05-11T10:24:17.537Z,9.82
2018-05-11T10:25:17.511Z,9.52
2018-05-11T10:26:17.564Z,9.54
2018-05-11T10:27:17.527Z,9.65
2018-05-11T10:28:17.535Z,9.46
2018-05-11T10:29:17.530Z,9.66
2018-05-11T10:30:17.507Z,9.49
2018-05-11T10:31:17.507Z,9.43
2018-05-11T10:32:17.517Z,9.65
2018-05-11T10:33:17.530Z,9.57
2018-05-11T10:34:17.482Z,9.64
2018-05-11T10:35:17.627Z,9.52
2018-05-11T10:36:17.553Z,9.37
2018-05-11T10:37:17.519Z,9.42
2018-05-11T10:38:17.501Z,9.12
2018-05-11T10:39:17.522Z,9.12
2018-05-11T10:40:17.575Z,9.05
2018-05-11T10:41:17.519Z,9.25
2018-05-11T10:42:17.497Z,9.33
2018-05-11T10:43:17.531Z,9.35
2018-05-11T10:44:17.511Z,9.52
2018-05-11T10:45:17.625Z,9.56
2018-05-11T10:46:17.824Z,9.47
2018-05-11T10:47:17.494Z,9.58
2018-05-11T10:48:17.546Z,9.51
2018-05-11T10:49:17.497Z,9.33
2018-05-11T10:50:17.576Z,9.44
2018-05-11T10:51:17.514Z,9.3
2018-05-11T10:52:17.591Z,9.57
2018-05-11T10:53:17.511Z,9.6
2018-05-11T10:54:17.577Z,9.56
2018-05-11T10:55:17.512Z,9.64
2018-05-11T10:56:17.507Z,9.48
2018-05-11T10:57:17.620Z,9.35
2018-05-11T10:58:17.570Z,9.29
2018-05-11T10:59:17.826Z,9.39
2018-05-11T11:00:17.559Z,9.46
2018-05-11T11:01:17.591Z,9.45
2018-05-11T11:02:17.996Z,9.71
2018-05-11T11:03:17.598Z,9.27
2018-05-11T11:04:17.550Z,9.36
2018-05-11T11:05:17.549Z,9.58
2018-05-11T11:06:17.617Z,9.57
2018-05-11T11:07:17.652Z,9.6
2018-05-11T11:08:17.643Z,9.69
2018-05-11T11:09:17.512Z,9.3
2018-05-11T11:10:17.559Z,9.11
2018-05-11T11:11:17.522Z,9.32
2018-05-11T11:12:17.547Z,9.09
2018-05-11T11:13:17.537Z,8.99
2018-05-11T11:14:17.804Z,9.31
2018-05-11T11:15:17.537Z,9.11
2018-05-11T11:16:17.592Z,9.18
2018-05-11T11:17:17.560Z,9.1
2018-05-11T11:18:17.632Z,9.12
2018-05-11T11:19:17.624Z,9.09
2018-05-11T11:20:17.549Z,9.21
2018-05-11T11:21:17.696Z,9.11
2018-05-11T11:22:17.558Z,9.15
2018-05-11T11:23:17.504Z,9.15
2018-05-11T11:24:17.536Z,9.18
2018-05-11T11:25:17.634Z,9.12
2018-05-11T11:26:18.752Z,9.16
2018-05-11T11:27:17.767Z,9.08
2018-05-11T11:28:17.647Z,8.94
2018-05-11T11:29:17.783Z,8.75
2018-05-11T11:30:17.636Z,9.09
2018-05-11T11:31:17.531Z,9.27
2018-05-11T11:32:17.686Z,9.17
2018-05-11T11:33:17.707Z,9.15
2018-05-11T11:34:21.203Z,9.12
2018-05-11T11:35:17.706Z,9.1
2018-05-11T11:36:17.533Z,8.97
2018-05-11T11:37:17.706Z,9.15
2018-05-11T11:38:17.706Z,9.05
2018-05-11T11:39:17.721Z,9.15
2018-05-11T11:40:17.770Z,9.29
2018-05-11T11:41:17.708Z,9.44
2018-05-11T11:42:18.114Z,9.28
2018-05-11T11:43:17.557Z,9.42
2018-05-11T11:44:17.546Z,9.45
2018-05-11T11:45:17.757Z,8.64
2018-05-11T11:46:17.673Z,8.91
2018-05-11T11:47:17.717Z,9.04
2018-05-11T11:48:17.720Z,9.06
2018-05-11T11:49:17.692Z,8.98
2018-05-11T11:50:17.704Z,9.09
2018-05-11T11:51:17.718Z,9.07
2018-05-11T11:52:17.555Z,8.99
2018-05-11T11:53:17.712Z,9.14
2018-05-11T11:54:17.740Z,9.07
2018-05-11T11:55:17.646Z,9.04
2018-05-11T11:56:17.849Z,8.87
2018-05-11T11:57:17.661Z,9.13
2018-05-11T11:58:17.768Z,9.03
2018-05-11T11:59:17.770Z,9
2018-05-11T12:00:17.675Z,9.05
2018-05-11T12:01:17.707Z,9.1
2018-05-11T12:02:17.561Z,9.06
2018-05-11T12:03:17.596Z,8.99
2018-05-11T12:04:17.786Z,8.91
2018-05-11T12:05:17.716Z,9.06
2018-05-11T12:06:18.757Z,8.72
2018-05-11T12:07:19.777Z,8.62
2018-05-11T12:08:17.650Z,8.85
2018-05-11T12:09:17.718Z,8.96
2018-05-11T12:10:17.622Z,9.03
2018-05-11T12:11:17.580Z,8.96
2018-05-11T12:12:17.803Z,9.24
2018-05-11T12:13:17.547Z,9
2018-05-11T12:14:17.767Z,8.96
2018-05-11T12:15:17.777Z,8.82
2018-05-11T12:16:17.673Z,8.88
2018-05-11T12:17:17.842Z,9.06
2018-05-11T12:18:17.727Z,8.82
2018-05-11T12:19:17.742Z,8.99
2018-05-11T12:20:17.808Z,8.59
2018-05-11T12:21:17.701Z,8.52
2018-05-11T12:22:17.566Z,8.58
2018-05-11T12:23:17.910Z,8.61
2018-05-11T12:24:17.814Z,8.41
2018-05-11T12:25:17.734Z,8.37
2018-05-11T12:26:18.136Z,8.27
2018-05-11T12:27:17.648Z,8.29
2018-05-11T12:28:17.759Z,8.6
2018-05-11T12:29:18.685Z,8.64
2018-05-11T12:30:17.666Z,8.83
2018-05-11T12:31:17.608Z,8.82
2018-05-11T12:32:17.619Z,8.38
2018-05-11T12:33:17.748Z,8.51
2018-05-11T12:34:17.605Z,8.65
2018-05-11T12:35:17.616Z,8.89
2018-05-11T12:36:17.598Z,8.53
2018-05-11T12:37:17.578Z,8.5
2018-05-11T12:38:17.587Z,8.35
2018-05-11T12:39:17.832Z,8.43
2018-05-11T12:40:17.591Z,8.53
2018-05-11T12:41:17.611Z,8.43
2018-05-11T12:42:17.604Z,8.46
2018-05-11T12:43:17.624Z,8.41
2018-05-11T12:44:17.630Z,8.55
2018-05-11T12:45:17.585Z,8.59
2018-05-11T12:46:17.577Z,8.46
2018-05-11T12:47:17.600Z,8.49
2018-05-11T12:48:17.589Z,8.69
2018-05-11T12:49:17.637Z,8.53
2018-05-11T12:50:17.650Z,8.51
2018-05-11T12:51:17.598Z,8.66
2018-05-11T12:52:17.611Z,8.64
2018-05-11T12:53:17.638Z,8.49
2018-05-11T12:54:17.751Z,8.53
2018-05-11T12:55:17.679Z,8.59
2018-05-11T12:56:17.597Z,8.74
2018-05-11T12:57:17.799Z,8.7
2018-05-11T12:58:17.645Z,8.88
2018-05-11T12:59:17.637Z,8.7
2018-05-11T13:00:17.603Z,8.73
2018-05-11T13:01:17.592Z,8.63
2018-05-11T13:02:18.713Z,8.27
2018-05-11T13:03:17.660Z,8.54
2018-05-11T13:04:17.641Z,8.53
2018-05-11T13:05:17.609Z,8.49
2018-05-11T13:06:17.711Z,8.66
2018-05-11T13:07:18.003Z,8.65
2018-05-11T13:08:17.587Z,8.71
2018-05-11T13:09:17.648Z,8.85
2018-05-11T13:10:17.763Z,8.71
2018-05-11T13:11:17.596Z,8.68
2018-05-11T13:12:17.763Z,8.69
2018-05-11T13:13:17.659Z,8.7
2018-05-11T13:14:17.643Z,8.58
2018-05-11T13:15:17.578Z,8.5
2018-05-11T13:16:17.615Z,8.43
2018-05-11T13:17:17.602Z,8.44
2018-05-11T13:18:17.744Z,8.45
2018-05-11T13:19:17.603Z,8.5